Aviation Digital Data Service (ADDS)

Output produced by METARs form (1737 UTC 30 October 2020)
found at http://www.aviationweather.gov/metar/data/
 
KMOB 301656Z 35011G24KT 7SM OVC018 12/07 A3020 RMK AO2 SLP225 T01170072
KMOB 301720Z 3018/3118 35011G20KT P6SM OVC020 
     FM301900 01009KT P6SM BKN150 
     FM311100 04004KT P6SM SKC